aviador You're here:

KACV Decoded Metar

ARCATA/EUREKA in CA, USA
Report Time2018-07-20 17:53:00
UTC Time2018-07-20 18:38:00
Flight Rules vfr VFR
Wind280° at 05 kt
W.Decomp.*RWY 32: 2.7 kt HW 4.2 kt LCW
RWY 19: 1.5 kt HW 4.8 kt RCW
W.Rank280° ranks 19
Current wind is below 280° avg. (5.2)
Visibility9656 m
Phenomena:Haze
Clouds:N/A
Expected CloudBase > 1,200 ft AGL from Temp-Dew spread
CeilingNone
Temp14°C (ISA -1)
Dew Point11°C (82% RH)
AAT12.5°C
QNH1014 hPa
Density Alt295 ft
Elevation220 ft
Report Wrong Elevation
Raw Report
KACV 201753Z AUTO 28005KT 6SM HZ CLR 14/11 A2994 RMK AO2 SLP142
T01440111 10144 20072 52001=

Extra information for KACV:More info

Metar Taf Metar & Taf Last 4 Metars F.Rules Stats Wind Profile Meteogram Temp Stats Airport Information Weather charts Add Link Nearby VenuesMetar ALERT Operation Metar Decoded Social comments

AIRNAV info for KACV